createdAt,value
2022-09-04T00:03:04.248Z,16.50
2022-09-04T00:06:11.541Z,16.70
2022-09-04T00:09:28.703Z,17.30
2022-09-04T00:12:35.221Z,17.80
2022-09-04T00:15:42.822Z,17.00
2022-09-04T00:18:47.161Z,16.70
2022-09-04T00:21:53.598Z,17.20
2022-09-04T00:25:18.330Z,17.20
2022-09-04T00:28:37.561Z,16.90
2022-09-04T00:31:44.789Z,16.70
2022-09-04T00:34:46.681Z,16.50
2022-09-04T00:38:03.767Z,16.00
2022-09-04T00:41:31.239Z,16.70
2022-09-04T00:45:02.254Z,15.90
2022-09-04T00:48:22.235Z,15.90
2022-09-04T00:51:43.473Z,16.20
2022-09-04T00:55:11.332Z,16.80
2022-09-04T00:58:31.490Z,17.30
2022-09-04T01:01:33.435Z,16.00
2022-09-04T01:04:44.075Z,14.80
2022-09-04T01:08:27.881Z,16.90
2022-09-04T01:11:29.824Z,16.30
2022-09-04T01:14:38.476Z,15.10
2022-09-04T01:18:02.520Z,15.30
2022-09-04T01:21:11.146Z,14.60
2022-09-04T01:24:44.248Z,14.30
2022-09-04T01:28:13.548Z,15.20
2022-09-04T01:32:03.613Z,14.20
2022-09-04T01:35:53.004Z,15.00
2022-09-04T01:38:59.237Z,15.60
2022-09-04T01:42:12.502Z,16.30
2022-09-04T01:45:24.555Z,16.30
2022-09-04T01:48:45.633Z,16.40
2022-09-04T01:52:14.818Z,18.30
2022-09-04T01:55:27.040Z,19.10
2022-09-04T01:58:35.506Z,16.50
2022-09-04T02:02:22.268Z,17.90
2022-09-04T02:05:36.481Z,19.50
2022-09-04T02:08:55.471Z,18.50
2022-09-04T02:12:09.293Z,17.90
2022-09-04T02:15:43.256Z,17.70
2022-09-04T02:18:48.016Z,17.70
2022-09-04T02:22:12.625Z,17.70
2022-09-04T02:25:26.660Z,18.60
2022-09-04T02:28:50.312Z,17.00
2022-09-04T02:32:05.291Z,16.00
2022-09-04T02:35:27.332Z,17.80
2022-09-04T02:38:37.349Z,18.60
2022-09-04T02:42:04.528Z,18.40
2022-09-04T02:45:28.037Z,18.60
2022-09-04T02:48:45.118Z,18.50
2022-09-04T02:52:05.656Z,17.20
2022-09-04T02:55:44.788Z,19.00
2022-09-04T02:59:10.082Z,20.00
2022-09-04T03:02:21.342Z,19.30
2022-09-04T03:05:26.655Z,18.80
2022-09-04T03:08:43.679Z,18.70
2022-09-04T03:11:59.740Z,19.60
2022-09-04T03:15:04.835Z,19.50
2022-09-04T03:18:21.287Z,20.00
2022-09-04T03:21:35.569Z,20.60
2022-09-04T03:24:56.151Z,19.90
2022-09-04T03:27:57.927Z,19.30
2022-09-04T03:31:09.938Z,19.10
2022-09-04T03:34:34.669Z,19.00
2022-09-04T03:38:13.035Z,18.20
2022-09-04T03:41:36.331Z,20.00
2022-09-04T03:45:04.000Z,18.10
2022-09-04T03:48:19.041Z,18.80
2022-09-04T03:51:47.339Z,20.80
2022-09-04T03:55:09.865Z,20.00
2022-09-04T03:58:22.827Z,18.80
2022-09-04T04:01:25.258Z,19.30
2022-09-04T04:05:00.385Z,18.40
2022-09-04T04:08:37.815Z,18.90
2022-09-04T04:12:13.598Z,18.60
2022-09-04T04:15:37.229Z,18.80
2022-09-04T04:18:56.127Z,19.10
2022-09-04T04:22:26.285Z,19.60
2022-09-04T04:25:27.966Z,18.80
2022-09-04T04:28:42.215Z,19.50
2022-09-04T04:32:09.590Z,17.40
2022-09-04T04:35:30.538Z,17.60
2022-09-04T04:38:47.794Z,17.50
2022-09-04T04:42:06.277Z,18.30
2022-09-04T04:45:31.034Z,18.70
2022-09-04T04:49:07.467Z,18.80
2022-09-04T04:52:19.258Z,19.20
2022-09-04T04:55:38.668Z,18.80
2022-09-04T04:59:08.516Z,18.30
2022-09-04T05:02:31.169Z,17.60
2022-09-04T05:05:55.310Z,19.30
2022-09-04T05:09:06.092Z,17.20
2022-09-04T05:12:17.525Z,15.30
2022-09-04T05:15:25.137Z,15.10
2022-09-04T05:19:04.733Z,15.30
2022-09-04T05:22:34.680Z,14.30
2022-09-04T05:25:58.781Z,14.50
2022-09-04T05:29:51.569Z,13.80
2022-09-04T05:32:59.106Z,12.60
2022-09-04T05:36:16.748Z,11.70
2022-09-04T05:39:33.051Z,11.80
2022-09-04T05:43:11.148Z,11.00
2022-09-04T05:46:37.895Z,11.10
2022-09-04T05:50:37.086Z,11.00
2022-09-04T05:54:13.285Z,11.00
2022-09-04T05:57:17.852Z,10.00
2022-09-04T06:00:20.170Z,9.90
2022-09-04T06:03:45.995Z,10.10
2022-09-04T06:06:50.696Z,10.90
2022-09-04T06:09:58.905Z,10.10
2022-09-04T06:13:25.508Z,9.20
2022-09-04T06:16:47.231Z,9.70
2022-09-04T06:20:04.823Z,9.30
2022-09-04T06:23:24.843Z,9.40
2022-09-04T06:26:40.711Z,9.10
2022-09-04T06:30:00.670Z,8.90
2022-09-04T06:33:17.330Z,9.00
2022-09-04T06:36:53.211Z,8.70
2022-09-04T06:40:03.219Z,8.50
2022-09-04T06:43:11.264Z,7.20
2022-09-04T06:46:19.264Z,9.00
2022-09-04T06:49:36.130Z,7.90
2022-09-04T06:52:53.220Z,7.10
2022-09-04T06:56:04.706Z,9.60
2022-09-04T06:59:21.787Z,7.10
2022-09-04T07:02:28.980Z,7.60
2022-09-04T07:05:54.581Z,7.60
2022-09-04T07:09:11.589Z,7.40
2022-09-04T07:12:22.510Z,7.80
2022-09-04T07:15:48.754Z,7.60
2022-09-04T07:19:21.687Z,8.20
2022-09-04T07:22:45.587Z,8.40
2022-09-04T07:26:15.654Z,8.10
2022-09-04T07:29:35.129Z,7.60
2022-09-04T07:32:43.409Z,8.00
2022-09-04T07:35:59.030Z,8.20
2022-09-04T07:39:44.025Z,8.90
2022-09-04T07:42:59.899Z,8.50
2022-09-04T07:46:18.743Z,8.30
2022-09-04T07:49:37.692Z,9.20
2022-09-04T07:52:54.602Z,9.10
2022-09-04T07:56:35.438Z,8.40
2022-09-04T07:59:59.482Z,8.70
2022-09-04T08:03:04.459Z,8.60
2022-09-04T08:06:30.149Z,9.20
2022-09-04T08:09:37.042Z,9.40
2022-09-04T08:13:08.941Z,9.50
2022-09-04T08:16:20.474Z,10.30
2022-09-04T08:19:50.101Z,9.40
2022-09-04T08:22:55.641Z,9.50
2022-09-04T08:26:14.663Z,10.10
2022-09-04T08:29:32.652Z,9.50
2022-09-04T08:32:55.349Z,8.90
2022-09-04T08:35:59.882Z,8.60
2022-09-04T08:39:09.604Z,8.20
2022-09-04T08:42:54.328Z,8.10
2022-09-04T08:46:28.791Z,6.80
2022-09-04T08:49:56.894Z,7.20
2022-09-04T08:53:13.735Z,7.00
2022-09-04T08:56:22.146Z,6.10
2022-09-04T08:59:51.975Z,6.60
2022-09-04T09:03:11.454Z,6.00
2022-09-04T09:06:13.623Z,5.80
2022-09-04T09:09:50.702Z,5.90
2022-09-04T09:13:16.801Z,5.90
2022-09-04T09:16:23.728Z,6.00
2022-09-04T09:19:40.910Z,5.40
2022-09-04T09:23:21.147Z,5.60
2022-09-04T09:26:29.280Z,5.10
2022-09-04T09:29:38.795Z,5.00
2022-09-04T09:33:35.341Z,5.90
2022-09-04T09:37:02.569Z,5.30
2022-09-04T09:40:16.989Z,5.40
2022-09-04T09:43:30.718Z,5.10
2022-09-04T09:46:58.369Z,5.40
2022-09-04T09:50:15.173Z,4.80
2022-09-04T09:53:46.448Z,5.20
2022-09-04T09:57:20.245Z,5.10
2022-09-04T10:00:55.218Z,5.10
2022-09-04T10:04:19.010Z,4.90
2022-09-04T10:07:42.635Z,5.50
2022-09-04T10:10:59.373Z,5.20
2022-09-04T10:14:39.182Z,5.20
2022-09-04T10:18:07.544Z,5.40
2022-09-04T10:21:46.468Z,5.10
2022-09-04T10:25:09.825Z,5.00
2022-09-04T10:28:34.628Z,4.80
2022-09-04T10:31:48.685Z,4.70
2022-09-04T10:35:25.484Z,4.40
2022-09-04T10:38:35.874Z,4.10
2022-09-04T10:42:11.796Z,4.50
2022-09-04T10:45:27.110Z,4.20
2022-09-04T10:48:48.263Z,4.00
2022-09-04T10:52:41.787Z,4.50
2022-09-04T10:55:47.955Z,4.30
2022-09-04T10:59:01.261Z,4.10
2022-09-04T11:02:41.146Z,3.90
2022-09-04T11:05:52.458Z,4.00
2022-09-04T11:09:11.488Z,4.30
2022-09-04T11:12:38.203Z,4.30
2022-09-04T11:16:16.923Z,4.50
2022-09-04T11:19:34.476Z,4.20
2022-09-04T11:23:01.293Z,3.80
2022-09-04T11:26:08.327Z,3.80
2022-09-04T11:29:22.526Z,3.40
2022-09-04T11:32:52.379Z,3.40
2022-09-04T11:36:19.186Z,3.90
2022-09-04T11:39:39.274Z,3.70
2022-09-04T11:42:50.336Z,3.80
2022-09-04T11:46:05.651Z,3.90
2022-09-04T11:49:28.257Z,3.50
2022-09-04T11:52:47.238Z,3.60
2022-09-04T11:56:14.008Z,3.40
2022-09-04T11:59:40.923Z,3.30
2022-09-04T12:03:04.586Z,3.40
2022-09-04T12:06:13.774Z,3.30
2022-09-04T12:09:36.293Z,3.20
2022-09-04T12:12:47.082Z,4.00
2022-09-04T12:16:07.293Z,4.30
2022-09-04T12:19:50.476Z,3.90
2022-09-04T12:23:14.154Z,4.40
2022-09-04T12:26:51.120Z,3.70
2022-09-04T12:30:15.101Z,3.90
2022-09-04T12:33:35.415Z,3.90
2022-09-04T12:37:02.346Z,3.50
2022-09-04T12:40:29.383Z,3.70
2022-09-04T12:43:41.882Z,3.70
2022-09-04T12:46:50.366Z,3.50
2022-09-04T12:50:16.216Z,3.40
2022-09-04T12:53:27.658Z,3.80
2022-09-04T12:56:32.216Z,3.70
2022-09-04T12:59:49.710Z,3.50
2022-09-04T13:03:17.494Z,3.80
2022-09-04T13:06:48.225Z,3.80
2022-09-04T13:10:04.106Z,3.60
2022-09-04T13:13:08.516Z,4.00
2022-09-04T13:16:27.552Z,3.80
2022-09-04T13:19:50.095Z,3.60
2022-09-04T13:23:17.758Z,3.50
2022-09-04T13:26:44.191Z,3.50
2022-09-04T13:30:02.845Z,3.60
2022-09-04T13:33:12.411Z,3.80
2022-09-04T13:36:24.831Z,3.40
2022-09-04T13:39:39.074Z,3.40
2022-09-04T13:42:54.426Z,3.60
2022-09-04T13:46:03.382Z,3.40
2022-09-04T13:49:16.470Z,3.50
2022-09-04T13:52:24.563Z,3.40
2022-09-04T13:55:38.927Z,3.40
2022-09-04T13:58:48.607Z,3.80
2022-09-04T14:01:54.888Z,3.80
2022-09-04T14:05:14.355Z,3.80
2022-09-04T14:08:17.918Z,3.70
2022-09-04T14:11:50.861Z,3.60
2022-09-04T14:15:05.703Z,3.60
2022-09-04T14:18:29.704Z,3.70
2022-09-04T14:21:47.430Z,3.90
2022-09-04T14:25:01.328Z,3.80
2022-09-04T14:28:20.762Z,3.70
2022-09-04T14:31:38.060Z,4.20
2022-09-04T14:34:57.286Z,4.20
2022-09-04T14:38:19.333Z,3.90
2022-09-04T14:41:36.143Z,4.00
2022-09-04T14:44:56.641Z,3.60
2022-09-04T14:48:03.691Z,3.90
2022-09-04T14:51:35.995Z,4.40
2022-09-04T14:54:40.264Z,3.90
2022-09-04T14:57:59.532Z,4.00
2022-09-04T15:01:07.205Z,4.00
2022-09-04T15:04:22.775Z,4.10
2022-09-04T15:07:49.663Z,4.00
2022-09-04T15:10:53.883Z,4.10
2022-09-04T15:14:05.273Z,3.80
2022-09-04T15:17:14.802Z,3.90
2022-09-04T15:20:22.713Z,3.90
2022-09-04T15:23:34.217Z,4.10
2022-09-04T15:26:46.266Z,4.60
2022-09-04T15:29:48.539Z,4.30
2022-09-04T15:33:05.582Z,3.90
2022-09-04T15:36:10.984Z,3.60
2022-09-04T15:39:25.710Z,3.60
2022-09-04T15:42:53.784Z,4.30
2022-09-04T15:46:03.634Z,3.80
2022-09-04T15:49:36.718Z,3.80
2022-09-04T15:52:45.090Z,4.20
2022-09-04T15:55:48.573Z,3.80
2022-09-04T15:59:12.237Z,4.00
2022-09-04T16:02:25.275Z,4.20
2022-09-04T16:05:59.842Z,4.50
2022-09-04T16:09:09.833Z,4.50
2022-09-04T16:12:18.054Z,5.30
2022-09-04T16:15:37.433Z,5.60
2022-09-04T16:18:43.679Z,5.80
2022-09-04T16:21:58.502Z,6.00
2022-09-04T16:25:10.403Z,6.10
2022-09-04T16:28:22.805Z,6.30
2022-09-04T16:31:34.927Z,6.30
2022-09-04T16:34:43.673Z,6.80
2022-09-04T16:37:52.826Z,6.50
2022-09-04T16:41:00.390Z,7.10
2022-09-04T16:44:15.180Z,7.20
2022-09-04T16:47:23.696Z,7.00
2022-09-04T16:50:27.454Z,7.30
2022-09-04T16:53:29.416Z,7.40
2022-09-04T16:56:45.611Z,7.50
2022-09-04T16:59:53.363Z,7.10
2022-09-04T17:03:00.790Z,7.50
2022-09-04T17:06:09.366Z,9.30
2022-09-04T17:09:54.697Z,8.30
2022-09-04T17:13:01.552Z,8.40
2022-09-04T17:16:09.675Z,8.60
2022-09-04T17:19:14.070Z,8.00
2022-09-04T17:28:55.846Z,8.50
2022-09-04T17:29:04.611Z,8.70
2022-09-04T17:30:02.352Z,8.80
2022-09-04T17:38:26.950Z,8.90
2022-09-04T17:40:53.994Z,9.10
2022-09-04T17:40:54.608Z,9.60
2022-09-04T17:44:02.271Z,8.90
2022-09-04T17:47:41.602Z,9.10
2022-09-04T17:50:52.131Z,8.30
2022-09-04T17:53:57.441Z,8.90
2022-09-04T17:57:14.220Z,9.10
2022-09-04T18:00:25.000Z,9.30
2022-09-04T18:03:41.258Z,10.00
2022-09-04T18:08:07.865Z,9.30
2022-09-04T18:11:13.927Z,9.30
2022-09-04T18:14:32.002Z,11.40
2022-09-04T18:17:47.924Z,13.30
2022-09-04T18:20:55.421Z,12.30
2022-09-04T18:23:59.804Z,12.20
2022-09-04T18:27:08.481Z,10.00
2022-09-04T18:34:48.805Z,12.40
2022-09-04T18:37:26.560Z,13.30
2022-09-04T18:37:47.425Z,14.20
2022-09-04T18:43:01.993Z,14.30
2022-09-04T18:50:21.097Z,14.90
2022-09-04T18:50:29.499Z,13.60
2022-09-04T18:51:31.880Z,13.10
2022-09-04T18:55:08.802Z,12.90
2022-09-04T18:58:10.503Z,12.50
2022-09-04T19:01:26.732Z,12.20
2022-09-04T19:04:38.256Z,12.50
2022-09-04T19:07:48.170Z,11.90
2022-09-04T19:10:54.158Z,10.90
2022-09-04T19:14:10.876Z,11.10
2022-09-04T19:17:27.211Z,10.90
2022-09-04T19:20:37.635Z,10.50
2022-09-04T19:24:15.594Z,11.70
2022-09-04T19:27:40.283Z,10.40
2022-09-04T19:30:54.125Z,10.30
2022-09-04T19:34:42.480Z,10.10
2022-09-04T19:40:24.726Z,10.20
2022-09-04T19:46:02.151Z,9.70
2022-09-04T19:46:07.454Z,10.30
2022-09-04T19:48:21.541Z,10.80
2022-09-04T19:53:24.359Z,12.20
2022-09-04T19:55:24.947Z,13.10
2022-09-04T19:58:45.906Z,11.70
2022-09-04T20:01:51.131Z,9.80
2022-09-04T20:04:58.313Z,10.20
2022-09-04T20:08:18.782Z,9.30
2022-09-04T20:11:51.538Z,9.80
2022-09-04T20:14:58.853Z,9.20
2022-09-04T20:18:09.817Z,12.50
2022-09-04T20:21:20.279Z,13.10
2022-09-04T20:25:01.448Z,12.70
2022-09-04T20:28:20.460Z,11.90
2022-09-04T20:31:35.370Z,11.60
2022-09-04T20:34:43.629Z,11.70
2022-09-04T20:37:53.859Z,10.70
2022-09-04T20:41:20.744Z,10.40
2022-09-04T20:44:55.270Z,11.80
2022-09-04T20:52:51.289Z,11.70
2022-09-04T20:52:57.775Z,11.60
2022-09-04T20:55:33.861Z,11.50
2022-09-04T21:03:07.646Z,11.10
2022-09-04T21:03:23.237Z,12.00
2022-09-04T21:06:10.440Z,11.70
2022-09-04T21:09:30.781Z,12.30
2022-09-04T21:12:37.925Z,12.00
2022-09-04T21:15:45.891Z,12.30
2022-09-04T21:19:27.791Z,11.20
2022-09-04T21:22:36.024Z,11.90
2022-09-04T21:25:51.646Z,11.30
2022-09-04T21:29:14.629Z,12.80
2022-09-04T21:32:29.219Z,12.80
2022-09-04T21:35:36.172Z,12.90
2022-09-04T21:39:09.414Z,12.30
2022-09-04T21:42:42.251Z,12.80
2022-09-04T21:46:13.053Z,13.00
2022-09-04T21:49:31.962Z,13.80
2022-09-04T21:53:16.909Z,13.30
2022-09-04T21:57:13.498Z,12.90
2022-09-04T22:02:41.529Z,11.10
2022-09-04T22:03:33.974Z,11.60
2022-09-04T22:09:00.223Z,12.00
2022-09-04T22:13:34.893Z,10.30
2022-09-04T22:14:03.127Z,9.70
2022-09-04T22:20:29.706Z,8.50
2022-09-04T22:24:15.211Z,8.60
2022-09-04T22:28:04.548Z,8.80
2022-09-04T22:31:15.308Z,8.50
2022-09-04T22:34:38.687Z,9.20
2022-09-04T22:38:17.787Z,8.20
2022-09-04T22:41:41.643Z,9.10
2022-09-04T22:44:57.175Z,9.60
2022-09-04T22:49:12.939Z,9.90
2022-09-04T22:52:26.955Z,8.80
2022-09-04T22:56:00.639Z,9.10
2022-09-04T22:59:44.121Z,9.40
2022-09-04T23:03:12.030Z,9.60
2022-09-04T23:11:42.026Z,9.70
2022-09-04T23:13:50.736Z,9.70
2022-09-04T23:14:18.838Z,10.70
2022-09-04T23:17:30.340Z,9.90
2022-09-04T23:26:33.254Z,10.50
2022-09-04T23:26:53.142Z,9.90
2022-09-04T23:28:30.686Z,10.70
2022-09-04T23:32:09.626Z,10.10
2022-09-04T23:35:53.575Z,10.20
2022-09-04T23:39:37.128Z,10.70
2022-09-04T23:43:14.059Z,10.90
2022-09-04T23:46:47.983Z,12.00
2022-09-04T23:50:31.384Z,12.00
2022-09-04T23:53:55.741Z,10.90
2022-09-04T23:57:27.270Z,11.20
